Windermere — V7SK7 — position and weather

sailwx.info

Track history (hours):
 
Tides and Currents Weather Stations Pressure Air Temp Water Temp Dewpoint Dewpoint Depression Visibility Wind Speed Wind Dir Waves Ship Positions

Windermere

Last reported at 2018-Feb-20 11:59 UTC. Time now 2018-Feb-21 03:44 UTC.
Position N 49°06' W 005°16'.

Length 80 m; draft 5 m.

Type: Port tender. MMSI: 538003672.

Date/timePositionNaut miles runAvg speedWind from/ knotsBaromVisibWave heightAir tempDewpointWater temp
2018-Feb-20 11:59N 49°06' W 005°16'4211.0
2018-Feb-20 08:10N 49°27' W 004°19'3110.3
2018-Feb-20 05:10N 49°42' W 003°37'211.7
2018-Feb-20 05:00N 49°42' W 003°34'612.2
2018-Feb-20 04:29N 49°45' W 003°26'612.8
2018-Feb-20 04:00N 49°48' W 003°17'713.5
2018-Feb-20 03:30N 49°52' W 003°09'713.6
2018-Feb-20 03:00N 49°56' W 003°01'612.5
2018-Feb-20 02:30N 49°58' W 002°51'613.0
2018-Feb-20 02:00N 49°59' W 002°41'612.3
2018-Feb-20 01:30N 50°02' W 002°33'611.6
2018-Feb-20 01:00N 50°04' W 002°24'610.8
2018-Feb-20 00:25N 50°06' W 002°15'4 9.9
2018-Feb-20 00:00N 50°07' W 002°08'5 9.1
2018-Feb-19 23:30N 50°08' W 002°01'4 8.4
2018-Feb-19 23:00N 50°09' W 001°55'4 7.9
2018-Feb-19 22:30N 50°10' W 001°49'4 7.7
2018-Feb-19 22:00N 50°11' W 001°44'4 8.0
2018-Feb-19 21:30N 50°12' W 001°38'4 8.6
2018-Feb-19 21:01N 50°13' W 001°31'5 9.4
2018-Feb-19 20:30N 50°15' W 001°24'510.5
2018-Feb-19 20:00N 50°16' W 001°16'611.5
2018-Feb-19 19:30N 50°18' W 001°08'812.9
2018-Feb-19 18:51N 50°20' W 000°55'613.6
2018-Feb-19 18:23N 50°22' W 000°45'613.8
2018-Feb-19 17:58N 50°24' W 000°37'714.0
2018-Feb-19 17:30N 50°26' W 000°27'713.8
2018-Feb-19 17:00N 50°27' W 000°17'713.4
2018-Feb-19 16:30N 50°29' W 000°06'613.1
2018-Feb-19 16:00N 50°31' E 000°03'612.9
2018-Feb-19 15:30N 50°33' E 000°13'612.5
2018-Feb-19 15:00N 50°35' E 000°23'612.0
2018-Feb-19 14:30N 50°36' E 000°32'611.2
2018-Feb-19 14:00N 50°39' E 000°40'510.9
2018-Feb-19 13:30N 50°42' E 000°46'510.5
2018-Feb-19 13:00N 50°45' E 000°53'510.3
2018-Feb-19 12:30N 50°48' E 001°00'5 9.7
2018-Feb-19 12:00N 50°51' E 001°05'510.8
2018-Feb-19 11:30N 50°55' E 001°11'611.4
2018-Feb-19 11:00N 50°59' E 001°18'612.7
2018-Feb-19 10:30N 51°03' E 001°25'714.2
2018-Feb-19 10:01N 51°07' E 001°35'714.3
2018-Feb-19 09:30N 51°12' E 001°43'713.9
2018-Feb-19 09:00N 51°18' E 001°48'713.1
2018-Feb-19 08:30N 51°24' E 001°52'612.1
2018-Feb-19 08:00N 51°30' E 001°57'611.8
2018-Feb-19 07:30N 51°34' E 002°04'611.3
2018-Feb-19 07:00N 51°38' E 002°10'511.0
2018-Feb-19 06:30N 51°42' E 002°16'510.7
2018-Feb-19 06:00N 51°46' E 002°22'8411.1
2018-Feb-18 22:26N 53°09' E 002°40'1012.9
2018-Feb-18 21:41N 53°18' E 002°46'312.6
2018-Feb-18 21:26N 53°21' E 002°48'1112.2
2018-Feb-18 20:34N 53°31' E 002°54'112.1
2018-Feb-18 20:30N 53°32' E 002°55'811.8
2018-Feb-18 19:48N 53°39' E 002°60'511.7
2018-Feb-18 19:24N 53°44' E 003°03'23511.3
2018-Feb-17 22:33N 56°59' E 006°50'12411.4
2018-Feb-17 11:40N 57°49' E 010°21'411.8
2018-Feb-17 11:21N 57°50' E 010°27'310.0
2018-Feb-17 11:00N 57°51' E 010°34'510.7
2018-Feb-17 10:30N 57°50' E 010°44'611.2
2018-Feb-17 10:00N 57°48' E 010°54'611.4
2018-Feb-17 09:30N 57°45' E 011°03'611.9
2018-Feb-17 09:00N 57°41' E 011°11'713.1
2018-Feb-17 08:30N 57°35' E 011°17'612.9
2018-Feb-17 08:00N 57°30' E 011°24'612.9
2018-Feb-17 07:30N 57°24' E 011°29'612.8
2018-Feb-17 07:00N 57°18' E 011°33'612.5
2018-Feb-17 06:30N 57°12' E 011°37'612.3
2018-Feb-17 06:01N 57°06' E 011°41'612.5
2018-Feb-17 05:30N 57°00' E 011°45'612.6
2018-Feb-17 05:00N 56°54' E 011°48'9711.0
2018-Feb-16 20:09N 55°21' E 011°02'612.1
2018-Feb-16 19:41N 55°15' E 011°05'211.8
2018-Feb-16 19:30N 55°13' E 011°06'612.1
2018-Feb-16 19:00N 55°08' E 010°60'612.5
2018-Feb-16 18:30N 55°02' E 010°60'611.9
2018-Feb-16 18:00N 54°57' E 010°55'510.2
2018-Feb-16 17:30N 54°52' E 010°50'510.7
2018-Feb-16 17:00N 54°47' E 010°49'611.7
2018-Feb-16 16:30N 54°42' E 010°47'611.2
2018-Feb-16 16:00N 54°38' E 010°55'611.4
2018-Feb-16 15:30N 54°36' E 011°04'611.4
2018-Feb-16 15:00N 54°35' E 011°13'611.8
2018-Feb-16 14:30N 54°33' E 011°23'611.6
2018-Feb-16 14:00N 54°30' E 011°32'611.8
2018-Feb-16 13:30N 54°28' E 011°41'612.0
2018-Feb-16 13:00N 54°27' E 011°51'611.9
2018-Feb-16 12:30N 54°27' E 012°02'611.2
2018-Feb-16 12:00N 54°27' E 012°11'612.2
2018-Feb-16 11:30N 54°33' E 012°14'4 8.9
2018-Feb-16 11:00N 54°37' E 012°16'4311.5
2018-Feb-16 07:16N 54°54' E 013°25'811.4
2018-Feb-16 06:32N 54°53' E 013°39'3011.8
2018-Feb-16 04:00N 54°38' E 014°24'612.0
2018-Feb-16 03:30N 54°39' E 014°34'611.8
2018-Feb-16 03:00N 54°42' E 014°43'611.4
2018-Feb-16 02:30N 54°45' E 014°51'611.1
2018-Feb-16 02:00N 54°47' E 014°60'510.9
2018-Feb-16 01:30N 54°50' E 015°08'511.0
2018-Feb-16 01:00N 54°53' E 015°16'611.1
2018-Feb-16 00:30N 54°55' E 015°25'611.2
2018-Feb-15 23:55N 54°59' E 015°34'511.5
2018-Feb-15 23:30N 55°01' E 015°42'711.5
2018-Feb-15 22:55N 55°05' E 015°52'  
Track history (hours):
 
Tides and Currents Weather Stations Pressure Air Temp Water Temp Dewpoint Dewpoint Depression Visibility Wind Speed Wind Dir Waves Ship Positions

Windermere

Last reported at 2018-Feb-20 11:59 UTC. Time now 2018-Feb-21 03:44 UTC.
Position N 49°06' W 005°16'.

Length 80 m; draft 5 m.

Type: Port tender. MMSI: 538003672.

Date/timePositionNaut miles runAvg speedWind from/ knotsBaromVisibWave heightAir tempDewpointWater temp
2018-Feb-20 11:59N 49°06' W 005°16'4211.0
2018-Feb-20 08:10N 49°27' W 004°19'3110.3
2018-Feb-20 05:10N 49°42' W 003°37'211.7
2018-Feb-20 05:00N 49°42' W 003°34'612.2
2018-Feb-20 04:29N 49°45' W 003°26'612.8
2018-Feb-20 04:00N 49°48' W 003°17'713.5
2018-Feb-20 03:30N 49°52' W 003°09'713.6
2018-Feb-20 03:00N 49°56' W 003°01'612.5
2018-Feb-20 02:30N 49°58' W 002°51'613.0
2018-Feb-20 02:00N 49°59' W 002°41'612.3
2018-Feb-20 01:30N 50°02' W 002°33'611.6
2018-Feb-20 01:00N 50°04' W 002°24'610.8
2018-Feb-20 00:25N 50°06' W 002°15'4 9.9
2018-Feb-20 00:00N 50°07' W 002°08'5 9.1
2018-Feb-19 23:30N 50°08' W 002°01'4 8.4
2018-Feb-19 23:00N 50°09' W 001°55'4 7.9
2018-Feb-19 22:30N 50°10' W 001°49'4 7.7
2018-Feb-19 22:00N 50°11' W 001°44'4 8.0
2018-Feb-19 21:30N 50°12' W 001°38'4 8.6
2018-Feb-19 21:01N 50°13' W 001°31'5 9.4
2018-Feb-19 20:30N 50°15' W 001°24'510.5
2018-Feb-19 20:00N 50°16' W 001°16'611.5
2018-Feb-19 19:30N 50°18' W 001°08'812.9
2018-Feb-19 18:51N 50°20' W 000°55'613.6
2018-Feb-19 18:23N 50°22' W 000°45'613.8
2018-Feb-19 17:58N 50°24' W 000°37'714.0
2018-Feb-19 17:30N 50°26' W 000°27'713.8
2018-Feb-19 17:00N 50°27' W 000°17'713.4
2018-Feb-19 16:30N 50°29' W 000°06'613.1
2018-Feb-19 16:00N 50°31' E 000°03'612.9
2018-Feb-19 15:30N 50°33' E 000°13'612.5
2018-Feb-19 15:00N 50°35' E 000°23'612.0
2018-Feb-19 14:30N 50°36' E 000°32'611.2
2018-Feb-19 14:00N 50°39' E 000°40'510.9
2018-Feb-19 13:30N 50°42' E 000°46'510.5
2018-Feb-19 13:00N 50°45' E 000°53'510.3
2018-Feb-19 12:30N 50°48' E 001°00'5 9.7
2018-Feb-19 12:00N 50°51' E 001°05'510.8
2018-Feb-19 11:30N 50°55' E 001°11'611.4
2018-Feb-19 11:00N 50°59' E 001°18'612.7
2018-Feb-19 10:30N 51°03' E 001°25'714.2
2018-Feb-19 10:01N 51°07' E 001°35'714.3
2018-Feb-19 09:30N 51°12' E 001°43'713.9
2018-Feb-19 09:00N 51°18' E 001°48'713.1
2018-Feb-19 08:30N 51°24' E 001°52'612.1
2018-Feb-19 08:00N 51°30' E 001°57'611.8
2018-Feb-19 07:30N 51°34' E 002°04'611.3
2018-Feb-19 07:00N 51°38' E 002°10'511.0
2018-Feb-19 06:30N 51°42' E 002°16'510.7
2018-Feb-19 06:00N 51°46' E 002°22'8411.1
2018-Feb-18 22:26N 53°09' E 002°40'1012.9
2018-Feb-18 21:41N 53°18' E 002°46'312.6
2018-Feb-18 21:26N 53°21' E 002°48'1112.2
2018-Feb-18 20:34N 53°31' E 002°54'112.1
2018-Feb-18 20:30N 53°32' E 002°55'811.8
2018-Feb-18 19:48N 53°39' E 002°60'511.7
2018-Feb-18 19:24N 53°44' E 003°03'23511.3
2018-Feb-17 22:33N 56°59' E 006°50'12411.4
2018-Feb-17 11:40N 57°49' E 010°21'411.8
2018-Feb-17 11:21N 57°50' E 010°27'310.0
2018-Feb-17 11:00N 57°51' E 010°34'510.7
2018-Feb-17 10:30N 57°50' E 010°44'611.2
2018-Feb-17 10:00N 57°48' E 010°54'611.4
2018-Feb-17 09:30N 57°45' E 011°03'611.9
2018-Feb-17 09:00N 57°41' E 011°11'713.1
2018-Feb-17 08:30N 57°35' E 011°17'612.9
2018-Feb-17 08:00N 57°30' E 011°24'612.9
2018-Feb-17 07:30N 57°24' E 011°29'612.8
2018-Feb-17 07:00N 57°18' E 011°33'612.5
2018-Feb-17 06:30N 57°12' E 011°37'612.3
2018-Feb-17 06:01N 57°06' E 011°41'612.5
2018-Feb-17 05:30N 57°00' E 011°45'612.6
2018-Feb-17 05:00N 56°54' E 011°48'9711.0
2018-Feb-16 20:09N 55°21' E 011°02'612.1
2018-Feb-16 19:41N 55°15' E 011°05'211.8
2018-Feb-16 19:30N 55°13' E 011°06'612.1
2018-Feb-16 19:00N 55°08' E 010°60'612.5
2018-Feb-16 18:30N 55°02' E 010°60'611.9
2018-Feb-16 18:00N 54°57' E 010°55'510.2
2018-Feb-16 17:30N 54°52' E 010°50'510.7
2018-Feb-16 17:00N 54°47' E 010°49'611.7
2018-Feb-16 16:30N 54°42' E 010°47'611.2
2018-Feb-16 16:00N 54°38' E 010°55'611.4
2018-Feb-16 15:30N 54°36' E 011°04'611.4
2018-Feb-16 15:00N 54°35' E 011°13'611.8
2018-Feb-16 14:30N 54°33' E 011°23'611.6
2018-Feb-16 14:00N 54°30' E 011°32'611.8
2018-Feb-16 13:30N 54°28' E 011°41'612.0
2018-Feb-16 13:00N 54°27' E 011°51'611.9
2018-Feb-16 12:30N 54°27' E 012°02'611.2
2018-Feb-16 12:00N 54°27' E 012°11'612.2
2018-Feb-16 11:30N 54°33' E 012°14'4 8.9
2018-Feb-16 11:00N 54°37' E 012°16'4311.5
2018-Feb-16 07:16N 54°54' E 013°25'811.4
2018-Feb-16 06:32N 54°53' E 013°39'3011.8
2018-Feb-16 04:00N 54°38' E 014°24'612.0
2018-Feb-16 03:30N 54°39' E 014°34'611.8
2018-Feb-16 03:00N 54°42' E 014°43'611.4
2018-Feb-16 02:30N 54°45' E 014°51'611.1
2018-Feb-16 02:00N 54°47' E 014°60'510.9
2018-Feb-16 01:30N 54°50' E 015°08'511.0
2018-Feb-16 01:00N 54°53' E 015°16'611.1
2018-Feb-16 00:30N 54°55' E 015°25'611.2
2018-Feb-15 23:55N 54°59' E 015°34'511.5
2018-Feb-15 23:30N 55°01' E 015°42'711.5
2018-Feb-15 22:55N 55°05' E 015°52'  

Dump ship's entire track history